Time;durP1;ratioP1;P1;durP2;ratioP2;P2;SDS_P1;SDS_P2;PMS_P1;PMS_P2;Temp;Humidity;BMP_temperature;BMP_pressure;BME280_temperature;BME280_humidity;BME280_pressure;Samples;Min_cycle;Max_cycle;Signal;HPM_P1;HPM_P2
2022/09/08 00:00:54;;;;;;;7.35;5.26;;;;;;;10.37;58.72;101398.81;462083;114;922545;-73
2022/09/08 00:01:58;;;;;;;4.84;4.42;;;;;;;10.36;58.53;101407.20;462167;114;922456;-73
2022/09/08 00:03:04;;;;;;;5.01;4.47;;;;;;;10.34;58.56;101403.82;462023;114;923329;-73
2022/09/08 00:04:07;;;;;;;5.31;4.73;;;;;;;10.32;58.63;101401.28;461957;114;923218;-73
2022/09/08 00:05:14;;;;;;;4.59;4.19;;;;;;;10.31;58.78;101405.03;462207;114;922512;-72
2022/09/08 00:06:18;;;;;;;4.97;4.44;;;;;;;10.31;58.78;101405.03;461991;114;922657;-72
2022/09/08 00:07:21;;;;;;;4.71;4.31;;;;;;;10.29;58.78;101396.23;462073;114;922600;-72
2022/09/08 00:08:24;;;;;;;4.75;4.35;;;;;;;10.27;58.66;101394.72;462181;114;922631;-73
2022/09/08 00:09:32;;;;;;;5.68;5.18;;;;;;;10.24;58.74;101403.30;462159;114;922661;-73
2022/09/08 00:10:35;;;;;;;4.51;4.08;;;;;;;10.23;58.84;101396.14;461963;114;922765;-73
2022/09/08 00:11:40;;;;;;;4.75;4.35;;;;;;;10.20;58.86;101397.36;462064;114;922840;-72
2022/09/08 00:12:43;;;;;;;4.69;4.15;;;;;;;10.20;58.80;101402.81;462042;114;930489;-73
2022/09/08 00:13:47;;;;;;;5.02;4.29;;;;;;;10.21;58.83;101398.21;462156;114;922962;-73
2022/09/08 00:14:51;;;;;;;4.22;3.86;;;;;;;10.21;58.85;101395.48;462083;114;922890;-71
2022/09/08 00:15:54;;;;;;;4.54;4.14;;;;;;;10.21;58.93;101399.06;465089;114;922587;-73
2022/09/08 00:16:58;;;;;;;3.83;3.54;;;;;;;10.22;58.85;101398.02;465847;114;930397;-74
2022/09/08 00:18:01;;;;;;;4.68;4.16;;;;;;;10.23;58.78;101394.27;465906;114;922654;-72
2022/09/08 00:19:04;;;;;;;6.61;3.87;;;;;;;10.24;58.83;101397.84;466040;114;922820;-73
2022/09/08 00:20:09;;;;;;;4.15;3.75;;;;;;;10.24;58.74;101398.69;465942;114;922618;-73
2022/09/08 00:21:12;;;;;;;4.47;4.07;;;;;;;10.24;58.67;101397.84;465845;114;930577;-73
2022/09/08 00:22:15;;;;;;;3.97;3.62;;;;;;;10.22;58.62;101399.91;466031;114;923100;-73
2022/09/08 00:23:18;;;;;;;4.82;3.95;;;;;;;10.19;58.57;101403.03;466026;114;922498;-73
2022/09/08 00:24:21;;;;;;;4.04;3.74;;;;;;;10.17;58.59;101402.36;466037;114;923132;-73
2022/09/08 00:25:24;;;;;;;4.46;4.08;;;;;;;10.13;58.63;101401.88;466048;114;922865;-73
2022/09/08 00:26:27;;;;;;;3.81;3.44;;;;;;;10.12;58.71;101400.19;466037;114;922526;-73
2022/09/08 00:27:30;;;;;;;3.98;3.36;;;;;;;10.11;58.65;101392.20;466024;114;922769;-73
2022/09/08 00:28:33;;;;;;;3.83;3.47;;;;;;;10.08;58.61;101396.17;466013;114;922688;-73
2022/09/08 00:29:37;;;;;;;4.37;3.14;;;;;;;10.06;58.65;101392.78;465893;114;922486;-73
2022/09/08 00:30:40;;;;;;;3.51;3.11;;;;;;;10.03;58.66;101388.55;465547;114;922658;-73
2022/09/08 00:31:43;;;;;;;4.09;3.77;;;;;;;10.01;58.59;101396.08;462656;114;922446;-73
2022/09/08 00:32:46;;;;;;;3.73;3.42;;;;;;;9.99;58.69;101389.13;462690;114;922899;-73
2022/09/08 00:33:49;;;;;;;4.06;3.08;;;;;;;9.96;58.63;101387.64;462496;114;922552;-73
2022/09/08 00:34:52;;;;;;;4.34;3.91;;;;;;;9.96;58.67;101392.24;462166;114;922530;-73
2022/09/08 00:35:55;;;;;;;4.57;3.26;;;;;;;9.96;58.76;101389.52;462176;114;923012;-73
2022/09/08 00:36:58;;;;;;;3.65;3.35;;;;;;;9.97;58.81;101388.48;462193;114;922569;-73
2022/09/08 00:38:01;;;;;;;3.97;3.63;;;;;;;10.00;58.87;101390.81;462180;114;922926;-73
2022/09/08 00:39:04;;;;;;;4.01;3.41;;;;;;;10.03;58.95;101387.73;462124;114;922742;-73
2022/09/08 00:40:08;;;;;;;3.81;3.45;;;;;;;10.08;58.94;101387.99;462127;114;923033;-73
2022/09/08 00:41:12;;;;;;;3.54;3.24;;;;;;;10.11;58.91;101387.59;462070;114;922673;-73
2022/09/08 00:42:17;;;;;;;3.56;3.26;;;;;;;10.15;58.86;101396.22;461267;114;922531;-73
2022/09/08 00:43:35;;;;;;;5.42;3.44;;;;;;;10.16;58.78;101390.62;462151;114;922800;-73
2022/09/08 00:44:51;;;;;;;3.26;3.01;;;;;;;10.18;58.73;101388.55;463595;114;923168;-73
2022/09/08 00:45:54;;;;;;;3.48;3.18;;;;;;;10.19;58.67;101386.67;465238;114;922580;-73
2022/09/08 00:46:57;;;;;;;3.26;2.96;;;;;;;10.19;58.62;101387.52;465342;114;922599;-73
2022/09/08 00:48:04;;;;;;;3.61;3.12;;;;;;;10.20;58.59;101388.38;465429;114;922954;-73
2022/09/08 00:49:16;;;;;;;3.29;3.04;;;;;;;10.18;58.51;101384.98;465199;114;922669;-73
2022/09/08 00:50:22;;;;;;;3.83;3.51;;;;;;;10.15;58.44;101383.44;465237;114;922571;-73
2022/09/08 00:51:26;;;;;;;3.56;3.25;;;;;;;10.13;58.56;101396.44;465213;114;922632;-73
2022/09/08 00:52:33;;;;;;;4.90;3.56;;;;;;;10.12;58.46;101385.72;465280;114;922686;-73
2022/09/08 00:53:40;;;;;;;3.41;3.08;;;;;;;10.11;58.46;101378.58;464494;114;922955;-73
2022/09/08 00:54:44;;;;;;;3.34;3.04;;;;;;;10.09;58.58;101389.66;465216;114;922979;-74
2022/09/08 00:55:47;;;;;;;4.44;3.29;;;;;;;10.08;58.48;101387.14;465316;114;922678;-71
2022/09/08 00:56:52;;;;;;;3.97;3.65;;;;;;;10.06;58.49;101387.33;465307;114;922888;-74
2022/09/08 00:57:57;;;;;;;6.11;3.86;;;;;;;10.05;58.52;101388.36;465133;114;930596;-74
2022/09/08 00:59:02;;;;;;;3.72;3.36;;;;;;;10.04;58.49;101382.06;465374;114;922931;-73
2022/09/08 01:00:08;;;;;;;3.36;3.12;;;;;;;10.06;58.50;101384.61;465276;114;922520;-73
2022/09/08 01:01:11;;;;;;;3.70;3.40;;;;;;;10.07;58.53;101377.28;465179;114;923122;-73
2022/09/08 01:02:22;;;;;;;3.84;3.54;;;;;;;10.08;58.48;101382.55;465412;114;922627;-74
2022/09/08 01:03:26;;;;;;;3.69;3.37;;;;;;;10.08;58.44;101377.09;465005;114;923022;-75
2022/09/08 01:04:30;;;;;;;3.71;3.29;;;;;;;10.08;58.40;101382.55;458764;115;930513;-74
2022/09/08 01:05:49;;;;;;;3.85;3.55;;;;;;;10.06;58.27;101373.70;459317;114;922857;-74
2022/09/08 01:12:56;;;;;;;4.44;4.14;;;;;;;9.86;58.55;101370.77;465192;114;922990;-73
2022/09/08 01:14:00;;;;;;;3.63;3.33;;;;;;;9.83;58.53;101373.00;465158;114;922885;-73
2022/09/08 01:15:06;;;;;;;4.42;4.03;;;;;;;9.81;58.53;101375.09;465358;114;922577;-73
2022/09/08 01:16:09;;;;;;;4.49;3.98;;;;;;;9.79;58.54;101371.70;473635;112;922483;-74
2022/09/08 01:17:18;;;;;;;4.03;3.72;;;;;;;9.80;58.73;101367.95;473808;112;922397;-74
2022/09/08 01:18:22;;;;;;;7.18;3.58;;;;;;;9.81;58.68;101370.48;473662;112;922470;-73
2022/09/08 01:19:28;;;;;;;4.91;4.15;;;;;;;9.84;58.70;101369.25;473691;112;922468;-74
2022/09/08 01:20:41;;;;;;;4.21;3.86;;;;;;;9.84;58.66;101367.38;473608;112;922662;-73
2022/09/08 01:22:03;;;;;;;3.82;3.52;;;;;;;9.85;58.63;101366.34;473545;112;922429;-73
2022/09/08 01:23:31;;;;;;;3.96;3.64;;;;;;;9.87;58.58;101366.13;473687;112;922912;-73
2022/09/08 01:24:53;;;;;;;4.06;3.76;;;;;;;9.87;58.62;101366.13;473641;112;922482;-73
2022/09/08 01:26:11;;;;;;;4.47;4.01;;;;;;;9.84;58.50;101361.08;473591;112;923223;-73
2022/09/08 01:27:24;;;;;;;4.39;4.09;;;;;;;9.84;58.64;101361.08;473609;112;922555;-73
2022/09/08 01:28:43;;;;;;;3.92;3.58;;;;;;;9.85;58.66;101358.17;473647;112;922893;-73
2022/09/08 01:29:47;;;;;;;4.63;4.03;;;;;;;9.87;58.70;101364.25;464332;112;922586;-73
2022/09/08 01:30:52;;;;;;;4.54;4.15;;;;;;;9.87;58.66;101361.53;465343;113;922508;-73
2022/09/08 01:31:58;;;;;;;4.48;4.13;;;;;;;9.89;58.64;101362.19;465130;114;930400;-73
2022/09/08 01:33:07;;;;;;;3.85;3.53;;;;;;;9.90;58.58;101365.77;465181;114;922580;-73
2022/09/08 01:34:10;;;;;;;4.26;3.93;;;;;;;9.89;58.51;101361.34;470135;112;922585;-73
2022/09/08 01:35:31;;;;;;;3.76;3.46;;;;;;;9.88;58.50;101360.50;473741;112;922545;-73
2022/09/08 01:36:34;;;;;;;;;;;;;;;9.89;58.46;101358.63;477481;112;930139;-73
2022/09/08 01:37:37;;;;;;;4.86;3.62;;;;;;;9.88;58.31;101360.50;473831;112;922399;-73
2022/09/08 01:38:41;;;;;;;3.95;3.65;;;;;;;9.83;58.22;101362.95;473761;112;922967;-73
2022/09/08 01:39:45;;;;;;;4.44;4.03;;;;;;;9.79;58.26;101361.66;473704;112;922887;-73
2022/09/08 01:40:48;;;;;;;3.96;3.62;;;;;;;9.77;58.33;101360.14;473717;112;923116;-73
2022/09/08 01:41:51;;;;;;;4.21;3.77;;;;;;;9.75;58.36;101351.34;473808;112;922476;-73
2022/09/08 01:42:54;;;;;;;6.81;3.47;;;;;;;9.73;58.50;101356.97;473757;112;922968;-73
2022/09/08 01:43:57;;;;;;;4.14;3.79;;;;;;;9.74;58.33;101357.81;473763;112;923268;-73
2022/09/08 01:45:01;;;;;;;4.68;3.59;;;;;;;9.72;58.31;101355.27;471367;112;922597;-73
2022/09/08 01:46:04;;;;;;;4.46;4.06;;;;;;;9.71;58.26;101360.90;468900;113;930476;-73
2022/09/08 01:47:07;;;;;;;3.87;3.57;;;;;;;9.69;58.35;101358.39;466002;113;923335;-73
2022/09/08 01:48:10;;;;;;;3.67;3.37;;;;;;;9.67;58.40;101356.88;458197;115;930501;-73
2022/09/08 01:49:13;;;;;;;4.02;3.72;;;;;;;9.67;58.47;101352.28;458174;115;922474;-73
2022/09/08 01:50:17;;;;;;;3.69;3.42;;;;;;;9.70;58.56;101356.52;458210;115;923045;-74
2022/09/08 01:51:20;;;;;;;3.74;3.44;;;;;;;9.72;58.68;101358.00;458211;115;922475;-74
2022/09/08 01:52:24;;;;;;;4.01;3.71;;;;;;;9.76;58.69;101355.75;458227;115;922664;-74
2022/09/08 01:53:28;;;;;;;3.51;3.21;;;;;;;9.79;58.60;101355.36;458078;115;922518;-74
2022/09/08 01:54:32;;;;;;;3.90;3.58;;;;;;;9.80;58.35;101357.05;458169;115;922523;-74
2022/09/08 01:55:35;;;;;;;4.31;3.95;;;;;;;9.77;58.12;101360.98;458282;115;922553;-73
2022/09/08 01:56:38;;;;;;;3.66;3.36;;;;;;;9.73;58.08;101356.12;458165;115;922929;-74
2022/09/08 01:57:41;;;;;;;3.79;3.48;;;;;;;9.69;58.08;101358.39;458216;115;922615;-73
2022/09/08 01:58:45;;;;;;;4.56;3.89;;;;;;;9.65;58.22;101354.34;460385;114;923276;-74
2022/09/08 01:59:48;;;;;;;3.56;3.26;;;;;;;9.60;58.16;101360.36;462535;114;922533;-73
2022/09/08 02:00:51;;;;;;;3.83;3.53;;;;;;;9.57;58.28;101362.63;462521;114;930470;-74
2022/09/08 02:01:54;;;;;;;3.72;3.43;;;;;;;9.56;58.44;101359.05;462654;114;922540;-74
2022/09/08 02:02:58;;;;;;;3.64;3.36;;;;;;;9.57;58.53;101360.75;462603;114;922653;-74
2022/09/08 02:04:01;;;;;;;4.04;3.74;;;;;;;9.61;58.61;101361.20;462679;114;922971;-74
2022/09/08 02:05:05;;;;;;;4.66;3.48;;;;;;;9.63;58.68;101359.99;462617;114;923089;-74
2022/09/08 02:06:08;;;;;;;5.24;3.80;;;;;;;9.67;58.75;101357.72;462573;114;922501;-74
2022/09/08 02:07:12;;;;;;;3.36;3.14;;;;;;;9.73;58.79;101351.52;462613;114;922879;-73
2022/09/08 02:08:15;;;;;;;3.77;3.16;;;;;;;9.73;58.79;101351.52;462530;114;930537;-74
2022/09/08 02:09:18;;;;;;;3.51;3.21;;;;;;;9.76;58.74;101353.03;462587;114;922600;-73
2022/09/08 02:10:22;;;;;;;4.24;3.91;;;;;;;9.77;58.69;101355.55;462599;114;922530;-74
2022/09/08 02:11:25;;;;;;;3.71;3.40;;;;;;;9.76;58.52;101348.41;462722;114;922546;-74
2022/09/08 02:12:28;;;;;;;3.75;3.47;;;;;;;9.74;58.44;101357.81;462665;114;923020;-73
2022/09/08 02:13:32;;;;;;;3.42;3.01;;;;;;;9.71;58.43;101347.28;462651;114;923600;-74
2022/09/08 02:14:37;;;;;;;3.27;3.04;;;;;;;9.69;58.49;101354.82;462451;114;922567;-73
2022/09/08 02:15:40;;;;;;;3.54;3.24;;;;;;;9.70;58.54;101356.52;464725;113;923004;-73
2022/09/08 02:16:43;;;;;;;3.82;3.23;;;;;;;9.72;58.53;101354.42;466423;113;923072;-72
2022/09/08 02:17:46;;;;;;;3.83;3.27;;;;;;;9.72;58.55;101355.27;466496;113;922822;-72
2022/09/08 02:18:49;;;;;;;3.68;3.34;;;;;;;9.74;58.51;101355.94;466544;113;922470;-73
2022/09/08 02:19:53;;;;;;;3.32;3.04;;;;;;;9.76;58.54;101356.57;466477;113;922613;-72
2022/09/08 02:21:06;;;;;;;3.03;2.76;;;;;;;9.78;58.52;101356.39;466482;113;930458;-74
2022/09/08 02:22:09;;;;;;;3.74;3.44;;;;;;;9.80;58.47;101351.61;466328;113;923026;-73
2022/09/08 02:23:12;;;;;;;3.44;3.14;;;;;;;9.82;58.44;101354.97;466420;113;922434;-73
2022/09/08 02:24:15;;;;;;;3.73;3.36;;;;;;;9.82;58.47;101360.41;466471;113;922641;-73
2022/09/08 02:25:18;;;;;;;3.98;3.50;;;;;;;9.82;58.31;101361.26;466473;113;923340;-73
2022/09/08 02:26:28;;;;;;;3.33;3.03;;;;;;;9.82;58.26;101355.81;466412;113;922790;-73
2022/09/08 02:27:31;;;;;;;3.44;2.86;;;;;;;9.83;58.19;101359.38;466228;113;930471;-73
2022/09/08 02:28:34;;;;;;;3.52;3.22;;;;;;;9.81;58.16;101358.75;466430;113;922887;-73
2022/09/08 02:29:37;;;;;;;3.42;3.12;;;;;;;9.78;58.22;101359.96;465422;113;922536;-73
2022/09/08 02:30:40;;;;;;;3.35;3.05;;;;;;;9.78;58.25;101354.52;459117;115;922971;-73
2022/09/08 02:31:43;;;;;;;3.54;3.16;;;;;;;9.80;58.22;101354.33;466108;113;922912;-74
2022/09/08 02:32:46;;;;;;;3.17;2.79;;;;;;;9.80;58.22;101354.33;466430;113;922893;-73
2022/09/08 02:33:49;;;;;;;3.32;3.03;;;;;;;9.81;58.21;101359.59;468310;112;923054;-73
2022/09/08 02:34:52;;;;;;;3.26;2.96;;;;;;;9.82;58.17;101360.41;473841;112;923081;-73
2022/09/08 02:35:55;;;;;;;2.97;2.69;;;;;;;9.82;58.06;101360.41;473871;112;922927;-73
2022/09/08 02:36:58;;;;;;;3.74;3.44;;;;;;;9.79;57.93;101358.93;473848;112;922985;-73
2022/09/08 02:38:01;;;;;;;3.41;3.11;;;;;;;9.77;57.97;101357.42;473877;112;922502;-73
2022/09/08 02:39:04;;;;;;;3.99;3.26;;;;;;;9.74;58.00;101358.66;473809;112;923096;-73
2022/09/08 02:40:08;;;;;;;3.19;2.90;;;;;;;9.73;57.94;101364.29;473946;112;923005;-73
2022/09/08 02:41:12;;;;;;;3.61;3.24;;;;;;;9.70;58.04;101359.23;473819;112;922608;-73
2022/09/08 02:42:16;;;;;;;3.14;2.84;;;;;;;9.69;57.98;101360.27;473844;112;922601;-73
2022/09/08 02:43:21;;;;;;;3.78;3.12;;;;;;;9.68;58.02;101362.14;472941;112;930825;-73
2022/09/08 02:44:25;;;;;;;2.94;2.74;;;;;;;9.68;58.00;101370.31;473739;112;930512;-73
2022/09/08 02:45:28;;;;;;;3.47;3.17;;;;;;;9.66;57.99;101368.80;474354;111;922687;-73
2022/09/08 02:46:31;;;;;;;3.31;2.98;;;;;;;9.65;57.93;101369.86;474743;111;922581;-73
2022/09/08 02:47:34;;;;;;;3.43;3.11;;;;;;;9.65;57.91;101375.30;474844;111;922632;-73
2022/09/08 02:48:38;;;;;;;3.29;2.99;;;;;;;9.62;57.91;101371.91;474886;111;923047;-73
2022/09/08 02:49:41;;;;;;;3.45;3.21;;;;;;;9.59;57.91;101366.02;474720;111;922963;-73
2022/09/08 02:50:44;;;;;;;3.41;3.11;;;;;;;9.57;57.96;101374.36;474842;111;922516;-72
2022/09/08 02:51:49;;;;;;;3.52;3.11;;;;;;;9.56;57.99;101371.81;474700;111;922881;-73
2022/09/08 02:52:52;;;;;;;3.27;3.02;;;;;;;9.55;58.05;101370.13;474816;111;922485;-73
2022/09/08 02:53:55;;;;;;;3.42;3.14;;;;;;;9.54;58.06;101369.28;474804;111;922908;-73
2022/09/08 02:54:59;;;;;;;5.09;3.24;;;;;;;9.53;58.01;101362.17;474827;111;922497;-73
2022/09/08 02:56:03;;;;;;;3.61;3.31;;;;;;;9.51;58.01;101369.67;474789;111;922957;-73
2022/09/08 02:57:06;;;;;;;3.02;2.72;;;;;;;9.50;58.06;101378.02;474789;111;922901;-73
2022/09/08 02:58:10;;;;;;;3.70;3.15;;;;;;;9.51;58.16;101374.27;474852;111;923145;-73
2022/09/08 02:59:14;;;;;;;3.49;3.17;;;;;;;9.51;58.32;101366.95;465181;114;923041;-73
2022/09/08 03:00:19;;;;;;;3.29;2.73;;;;;;;9.52;58.23;101368.64;465245;114;922606;-73
2022/09/08 03:01:22;;;;;;;3.06;2.78;;;;;;;9.54;58.25;101365.70;465215;114;922564;-72
2022/09/08 03:02:25;;;;;;;3.07;2.87;;;;;;;9.54;58.16;101369.28;465382;114;930709;-72
2022/09/08 03:03:28;;;;;;;3.61;2.76;;;;;;;9.53;58.21;101373.06;465381;114;922942;-73
2022/09/08 03:04:31;;;;;;;4.54;2.80;;;;;;;9.54;58.21;101361.11;465345;114;922523;-72
2022/09/08 03:05:34;;;;;;;3.69;2.93;;;;;;;9.54;58.19;101365.70;465412;114;922530;-73
2022/09/08 03:06:38;;;;;;;3.16;2.69;;;;;;;9.55;58.22;101367.41;465401;114;922883;-72
2022/09/08 03:07:41;;;;;;;3.17;2.86;;;;;;;9.54;58.22;101366.55;465395;114;922875;-72
2022/09/08 03:08:46;;;;;;;3.02;2.69;;;;;;;9.54;58.18;101369.28;465377;114;922527;-72
2022/09/08 03:09:51;;;;;;;2.97;2.71;;;;;;;9.56;58.25;101371.81;465218;114;922515;-72
2022/09/08 03:10:54;;;;;;;2.93;2.73;;;;;;;9.58;58.26;101370.61;465214;114;922491;-72
2022/09/08 03:11:56;;;;;;;4.60;2.78;;;;;;;9.59;58.25;101366.83;465390;114;922454;-72
2022/09/08 03:13:00;;;;;;;3.16;2.91;;;;;;;9.62;58.23;101374.63;465409;114;922877;-72
2022/09/08 03:14:03;;;;;;;3.11;2.87;;;;;;;9.63;58.22;101367.31;465427;114;924162;-72
2022/09/08 03:15:07;;;;;;;3.54;3.21;;;;;;;9.65;58.20;101375.30;465324;114;922716;-72
2022/09/08 03:16:11;;;;;;;3.41;2.91;;;;;;;9.66;58.21;101372.36;465339;113;922455;-72
2022/09/08 03:17:14;;;;;;;3.72;3.42;;;;;;;9.66;58.12;101366.92;465328;114;922892;-72
2022/09/08 03:18:17;;;;;;;4.19;3.86;;;;;;;9.65;58.03;101367.95;465426;114;922637;-72
2022/09/08 03:19:20;;;;;;;4.55;4.12;;;;;;;9.62;57.99;101369.19;465336;114;922398;-72
2022/09/08 03:20:25;;;;;;;3.65;3.36;;;;;;;9.59;57.89;101372.27;465361;113;922499;-72
2022/09/08 03:21:28;;;;;;;3.55;3.11;;;;;;;9.56;57.84;101369.09;465307;113;922963;-72
2022/09/08 03:22:31;;;;;;;4.17;3.52;;;;;;;9.53;57.76;101373.06;465418;114;922400;-72
2022/09/08 03:23:34;;;;;;;3.59;3.31;;;;;;;9.51;57.72;101371.55;465452;114;922554;-72
2022/09/08 03:24:38;;;;;;;4.84;2.98;;;;;;;9.49;57.74;101373.59;465358;114;922782;-72
2022/09/08 03:25:41;;;;;;;2.74;2.53;;;;;;;9.46;57.81;101366.67;465422;114;922736;-72
2022/09/08 03:26:44;;;;;;;3.22;3.02;;;;;;;9.46;57.84;101371.27;465378;114;922477;-72
2022/09/08 03:27:47;;;;;;;3.80;3.27;;;;;;;9.47;57.86;101368.37;465387;113;922403;-72
2022/09/08 03:28:51;;;;;;;3.06;2.72;;;;;;;9.47;57.80;101376.53;465388;114;922990;-72
2022/09/08 03:29:54;;;;;;;5.01;3.01;;;;;;;9.45;57.73;101375.02;465465;113;922529;-72
2022/09/08 03:30:57;;;;;;;3.62;3.19;;;;;;;9.44;57.70;101378.77;465623;114;930521;-73
2022/09/08 03:32:01;;;;;;;3.78;3.48;;;;;;;9.42;57.71;101378.98;465368;114;922946;-73
2022/09/08 03:33:04;;;;;;;5.78;3.31;;;;;;;9.40;57.70;101377.45;465258;114;923023;-73
2022/09/08 03:34:07;;;;;;;3.81;3.48;;;;;;;9.37;57.70;101375.94;465296;112;923122;-73
2022/09/08 03:35:12;;;;;;;4.27;3.87;;;;;;;9.35;57.74;101380.75;465379;114;922821;-72
2022/09/08 03:36:17;;;;;;;4.61;3.86;;;;;;;9.33;57.72;101382.80;465209;114;922996;-73
2022/09/08 03:37:20;;;;;;;4.36;3.73;;;;;;;9.29;57.67;101378.77;465192;114;922626;-73
2022/09/08 03:38:23;;;;;;;4.37;3.92;;;;;;;9.26;57.72;101381.03;465334;114;930552;-73
2022/09/08 03:39:26;;;;;;;4.46;3.89;;;;;;;9.24;57.74;101373.05;465376;114;922717;-72
2022/09/08 03:40:29;;;;;;;4.16;3.76;;;;;;;9.23;57.92;101370.51;465371;114;922923;-72
2022/09/08 03:41:32;;;;;;;4.76;4.11;;;;;;;9.23;57.98;101375.95;465386;114;923044;-73
2022/09/08 03:42:39;;;;;;;5.07;4.60;;;;;;;9.23;58.00;101379.52;465228;114;922937;-72
2022/09/08 03:43:47;;;;;;;5.04;4.47;;;;;;;9.23;58.07;101375.95;465094;114;930510;-73
2022/09/08 03:44:50;;;;;;;4.81;4.21;;;;;;;9.23;58.13;101378.67;465176;114;922504;-72
2022/09/08 03:45:53;;;;;;;6.05;5.20;;;;;;;9.24;58.20;101377.64;465359;114;923597;-72
2022/09/08 03:46:57;;;;;;;8.29;6.03;;;;;;;9.26;58.28;101387.33;465382;114;922485;-72
2022/09/08 03:48:00;;;;;;;7.04;5.60;;;;;;;9.30;58.30;101387.78;465408;114;922614;-72
2022/09/08 03:49:04;;;;;;;6.82;5.61;;;;;;;9.31;58.21;101384.88;465368;114;922835;-73
2022/09/08 03:50:08;;;;;;;9.06;5.55;;;;;;;9.32;58.22;101386.55;465174;114;922603;-72
2022/09/08 03:51:15;;;;;;;6.17;5.49;;;;;;;9.32;58.18;101381.11;465215;114;930877;-73
2022/09/08 03:52:18;;;;;;;7.72;5.77;;;;;;;9.34;58.20;101380.92;465237;113;923095;-73
2022/09/08 03:53:21;;;;;;;9.51;5.64;;;;;;;9.34;58.22;101379.05;465374;114;922589;-72
2022/09/08 03:55:45;;;;;;;7.57;5.74;;;;;;;9.35;58.22;101378.02;465195;114;922556;-73
2022/09/08 03:56:50;;;;;;;6.27;5.67;;;;;;;9.35;58.17;101386.19;465377;114;922502;-74
2022/09/08 03:57:53;;;;;;;9.10;5.77;;;;;;;9.32;58.18;101381.11;465378;114;922708;-73
2022/09/08 03:58:56;;;;;;;6.93;5.74;;;;;;;9.30;58.18;101391.35;465364;114;922477;-73
2022/09/08 04:00:00;;;;;;;7.14;5.84;;;;;;;9.28;58.29;101378.95;465345;114;922513;-72
2022/09/08 04:01:15;;;;;;;7.72;5.97;;;;;;;9.26;58.42;101381.88;465283;114;922575;-73
2022/09/08 04:02:20;;;;;;;8.85;5.82;;;;;;;9.26;58.47;101376.44;465217;114;922741;-73
2022/09/08 04:03:23;;;;;;;8.53;5.66;;;;;;;9.26;58.54;101370.15;465206;114;922733;-73
2022/09/08 04:04:26;;;;;;;7.34;5.64;;;;;;;9.25;58.56;101374.74;465423;114;922539;-73
2022/09/08 04:05:29;;;;;;;6.56;5.74;;;;;;;9.24;58.54;101381.21;465319;114;922398;-73
2022/09/08 04:06:32;;;;;;;7.69;6.17;;;;;;;9.26;58.58;101383.75;465302;114;923000;-73
2022/09/08 04:07:37;;;;;;;5.21;4.64;;;;;;;9.25;58.71;101369.30;465415;114;922834;-72
2022/09/08 04:08:40;;;;;;;7.26;6.10;;;;;;;9.29;58.75;101375.20;465191;114;923560;-72
2022/09/08 04:09:44;;;;;;;8.41;5.96;;;;;;;9.31;58.79;101376.72;465290;114;922846;-73
2022/09/08 04:10:47;;;;;;;7.42;5.73;;;;;;;9.33;58.83;101374.63;465240;114;930566;-73
2022/09/08 04:11:50;;;;;;;6.29;5.44;;;;;;;9.37;58.85;101370.50;465402;114;922939;-72
2022/09/08 04:12:53;;;;;;;11.08;5.92;;;;;;;9.40;58.80;101380.18;465356;114;922490;-72
2022/09/08 04:13:56;;;;;;;6.77;5.54;;;;;;;9.42;58.80;101376.25;465468;114;922623;-73
2022/09/08 04:14:59;;;;;;;7.66;5.71;;;;;;;9.44;58.80;101374.17;465415;114;922848;-73
2022/09/08 04:16:03;;;;;;;7.75;5.76;;;;;;;9.47;58.90;101371.09;462913;114;922775;-72
2022/09/08 04:17:07;;;;;;;8.65;6.05;;;;;;;9.52;58.94;101374.09;463408;114;922557;-72
2022/09/08 04:18:10;;;;;;;6.84;5.78;;;;;;;9.56;58.95;101375.39;465012;114;922813;-72
2022/09/08 04:19:13;;;;;;;6.59;5.94;;;;;;;9.60;59.02;101373.97;464902;114;923085;-73
2022/09/08 04:20:18;;;;;;;5.98;5.48;;;;;;;9.67;59.07;101381.38;464853;114;922644;-72
2022/09/08 04:21:21;;;;;;;9.35;5.94;;;;;;;9.73;59.19;101375.19;464821;114;930514;-73
2022/09/08 04:22:25;;;;;;;8.76;5.84;;;;;;;9.81;59.21;101373.22;465013;114;922598;-73
2022/09/08 04:23:28;;;;;;;6.97;5.84;;;;;;;9.89;59.23;101366.80;464958;114;922930;-73
2022/09/08 04:24:31;;;;;;;5.85;5.21;;;;;;;9.98;59.20;101379.25;464859;114;922622;-72
2022/09/08 04:25:34;;;;;;;6.99;5.82;;;;;;;10.07;59.15;101375.40;464972;114;922713;-73
2022/09/08 04:26:38;;;;;;;6.17;5.51;;;;;;;10.15;59.18;101374.42;464949;114;922917;-73
2022/09/08 04:27:41;;;;;;;5.90;5.35;;;;;;;10.24;59.00;101370.59;464941;114;922511;-73
2022/09/08 04:28:44;;;;;;;6.90;5.61;;;;;;;10.32;58.88;101365.00;464865;114;930643;-73
2022/09/08 04:29:47;;;;;;;7.08;6.42;;;;;;;10.38;58.75;101365.06;465062;114;923012;-73
2022/09/08 04:30:50;;;;;;;6.26;5.59;;;;;;;10.44;58.55;101368.90;465990;112;923007;-73
2022/09/08 04:31:53;;;;;;;6.50;5.38;;;;;;;10.49;58.39;101369.16;473682;112;930536;-72
2022/09/08 04:32:56;;;;;;;8.87;5.69;;;;;;;10.54;58.22;101369.41;473796;112;923020;-73
2022/09/08 04:33:59;;;;;;;6.49;5.58;;;;;;;10.58;58.12;101370.73;470239;112;922485;-73
2022/09/08 04:35:03;;;;;;;7.11;5.37;;;;;;;10.63;58.06;101378.32;465351;114;922839;-73
2022/09/08 04:36:12;;;;;;;6.23;5.51;;;;;;;10.68;58.01;101370.39;465386;114;922968;-73
2022/09/08 04:37:18;;;;;;;6.72;5.40;;;;;;;10.72;57.95;101371.67;461946;114;923071;-73
2022/09/08 04:38:21;;;;;;;6.20;5.31;;;;;;;10.76;57.86;101375.69;465237;114;922875;-72
2022/09/08 04:39:24;;;;;;;6.09;5.47;;;;;;;10.81;57.91;101373.22;465345;114;922519;-72
2022/09/08 04:40:27;;;;;;;5.29;4.86;;;;;;;10.86;57.68;101365.31;465316;114;922626;-72
2022/09/08 04:41:31;;;;;;;8.25;5.74;;;;;;;10.91;57.60;101364.71;465309;114;922561;-72
2022/09/08 04:42:35;;;;;;;6.95;6.25;;;;;;;10.94;57.48;101367.88;465308;114;922989;-73
2022/09/08 04:43:39;;;;;;;5.63;5.13;;;;;;;10.98;57.32;101368.31;465219;114;922895;-72
2022/09/08 04:44:42;;;;;;;6.07;5.44;;;;;;;11.00;57.24;101361.63;465300;114;930593;-73
2022/09/08 04:45:44;;;;;;;6.71;5.66;;;;;;;11.03;57.03;101357.64;465371;114;922482;-72
2022/09/08 04:46:48;;;;;;;6.91;6.11;;;;;;;11.03;56.95;101361.22;462176;114;923234;-72
2022/09/08 04:47:51;;;;;;;7.96;5.66;;;;;;;11.03;56.92;101363.10;462195;114;923631;-72
2022/09/08 04:48:54;;;;;;;5.64;5.13;;;;;;;11.04;56.95;101364.80;462167;114;922536;-73
2022/09/08 04:49:57;;;;;;;5.80;5.23;;;;;;;11.03;56.98;101366.67;462099;114;922547;-72
2022/09/08 04:51:01;;;;;;;6.86;5.49;;;;;;;11.04;56.97;101370.25;462003;114;930895;-72
2022/09/08 04:52:05;;;;;;;8.39;5.72;;;;;;;11.04;57.00;101360.18;462044;114;922755;-72
2022/09/08 04:53:07;;;;;;;8.40;5.95;;;;;;;11.07;57.07;101367.14;462066;114;930596;-73
2022/09/08 04:54:11;;;;;;;7.85;5.10;;;;;;;11.09;57.10;101365.03;462133;114;922548;-72
2022/09/08 04:55:14;;;;;;;9.59;5.46;;;;;;;11.11;57.07;101366.54;462118;114;922511;-72
2022/09/08 04:56:21;;;;;;;6.49;5.89;;;;;;;11.14;57.13;101357.09;461824;114;922982;-73
2022/09/08 04:57:24;;;;;;;6.74;5.54;;;;;;;11.17;57.06;101367.62;461911;114;923280;-72
2022/09/08 04:58:30;;;;;;;5.72;5.22;;;;;;;11.18;56.94;101367.44;462112;114;922536;-73
2022/09/08 04:59:33;;;;;;;6.56;5.74;;;;;;;11.19;56.86;101360.09;461935;114;922474;-72
2022/09/08 05:00:37;;;;;;;6.78;6.01;;;;;;;11.20;56.93;101369.95;462154;114;922993;-72
2022/09/08 05:01:40;;;;;;;9.55;6.40;;;;;;;11.23;56.96;101367.68;462080;114;922933;-72
2022/09/08 05:02:46;;;;;;;6.87;6.16;;;;;;;11.27;56.97;101365.38;462103;114;922646;-73
2022/09/08 05:03:52;;;;;;;7.15;6.38;;;;;;;11.30;56.94;101360.35;461956;114;923129;-72
2022/09/08 05:04:55;;;;;;;6.33;5.63;;;;;;;11.35;56.96;101362.51;461961;114;922598;-73
2022/09/08 05:06:06;;;;;;;5.99;5.43;;;;;;;11.38;56.69;101363.98;462099;114;922526;-73